Reecon Whale — 9HA2885 — position and weather

sailwx.info

Track history (hours):
 
Tides and Currents Weather Stations Pressure Air Temp Water Temp Dewpoint Dewpoint Depression Visibility Wind Speed Wind Dir Waves Ship Positions

Reecon Whale

Last reported at 2017-Oct-17 04:24 UTC. Time now 2017-Oct-18 16:52 UTC.
Position N 40°51' E 001°42'.

Length 145 m; draft 7.3 m.

Type: Ship. MMSI: 256579000.

Date/timePositionNaut miles runAvg speedWind from/ knotsBaromVisibWave heightAir tempDewpointWater temp
2017-Oct-17 04:24N 40°51' E 001°42'512.1
2017-Oct-17 04:00N 40°55' E 001°46'612.3
2017-Oct-17 03:30N 40°59' E 001°52'611.9
2017-Oct-17 03:00N 41°04' E 001°57'611.7
2017-Oct-17 02:30N 41°08' E 002°02'612.0
2017-Oct-17 02:00N 41°13' E 002°07'611.1
2017-Oct-17 01:30N 41°18' E 002°10'71 2.0
2017-Oct-15 13:54N 41°48' E 003°37'911.2
2017-Oct-15 13:07N 41°53' E 003°47'211.5
2017-Oct-15 12:55N 41°54' E 003°50'1711.4
2017-Oct-15 11:25N 42°02' E 004°10'711.5
2017-Oct-15 10:50N 42°05' E 004°18'611.6
2017-Oct-15 10:20N 42°08' E 004°25'811.5
2017-Oct-15 09:37N 42°12' E 004°34'311.4
2017-Oct-15 09:22N 42°13' E 004°38'411.2
2017-Oct-15 09:00N 42°15' E 004°43'611.0
2017-Oct-15 08:30N 42°17' E 004°50'1012.2
2017-Oct-15 07:43N 42°21' E 005°01'316.7
2017-Oct-15 07:30N 42°23' E 005°06'1117.2
2017-Oct-15 06:53N 42°28' E 005°18'616.1
2017-Oct-15 06:30N 42°30' E 005°26'612.0
2017-Oct-15 06:01N 42°33' E 005°33'711.7
2017-Oct-15 05:26N 42°36' E 005°41'611.7
2017-Oct-15 04:57N 42°39' E 005°48'711.9
2017-Oct-15 04:22N 42°42' E 005°56'712.0
2017-Oct-15 03:47N 42°45' E 006°05'2012.3
2017-Oct-15 02:07N 42°54' E 006°30'612.6
2017-Oct-15 01:41N 42°57' E 006°36'1612.4
2017-Oct-15 00:25N 43°06' E 006°54'512.2
2017-Oct-15 00:00N 43°09' E 006°60'612.0
2017-Oct-14 23:30N 43°12' E 007°06'611.7
2017-Oct-14 23:00N 43°16' E 007°13'611.6
2017-Oct-14 22:30N 43°19' E 007°19'611.7
2017-Oct-14 22:00N 43°23' E 007°25'611.9
2017-Oct-14 21:30N 43°26' E 007°32'1912.2
2017-Oct-14 19:57N 43°38' E 007°53'2112.0
2017-Oct-14 18:11N 43°50' E 008°17'211.9
2017-Oct-14 18:00N 43°52' E 008°19'611.9
2017-Oct-14 17:30N 43°56' E 008°24'612.0
2017-Oct-14 17:00N 44°00' E 008°30'611.9
2017-Oct-14 16:30N 44°05' E 008°36'611.7
2017-Oct-14 16:00N 44°09' E 008°42'611.7
2017-Oct-14 15:30N 44°13' E 008°48'611.7
2017-Oct-14 15:00N 44°17' E 008°54'510.5
2017-Oct-14 14:30N 44°21' E 008°57'4 7.4
2017-Oct-14 14:00N 44°24' E 008°54'1 1.2
2017-Oct-14 13:30N 44°24' E 008°53'0 0.0
2017-Oct-14 12:57N 44°24' E 008°53'0 0.0
2017-Oct-14 12:30N 44°24' E 008°53'0 0.0
2017-Oct-14 12:00N 44°24' E 008°53'0 0.0
2017-Oct-14 11:30N 44°24' E 008°53'0 0.0
2017-Oct-14 11:00N 44°24' E 008°53'0 0.0
2017-Oct-14 10:27N 44°24' E 008°53'0 0.0
2017-Oct-14 09:57N 44°24' E 008°53'0 0.0
2017-Oct-14 09:30N 44°24' E 008°53'0 0.0
2017-Oct-14 09:00N 44°24' E 008°53'0 0.0
2017-Oct-14 08:30N 44°24' E 008°53'0 0.0
2017-Oct-14 08:00N 44°24' E 008°53'0 0.0
2017-Oct-14 07:30N 44°24' E 008°53'0 0.0
2017-Oct-14 07:00N 44°24' E 008°53'0 0.0
2017-Oct-14 06:30N 44°24' E 008°53'0 0.0
2017-Oct-14 06:00N 44°24' E 008°53'0 0.0
2017-Oct-14 05:30N 44°24' E 008°53'0 0.0
2017-Oct-14 05:00N 44°24' E 008°53'0 0.0
2017-Oct-14 04:30N 44°24' E 008°53'0 0.0
2017-Oct-14 04:00N 44°24' E 008°53'0 0.0
2017-Oct-14 03:30N 44°24' E 008°53'0 0.0
2017-Oct-14 03:00N 44°24' E 008°53'0 0.0
2017-Oct-14 02:30N 44°24' E 008°53'0 0.0
2017-Oct-14 02:00N 44°24' E 008°53'0 0.0
2017-Oct-14 01:27N 44°24' E 008°53'0 0.0
2017-Oct-14 01:00N 44°24' E 008°53'0 0.0
2017-Oct-14 00:30N 44°24' E 008°53'0 0.0
2017-Oct-14 00:00N 44°24' E 008°53'0 0.0
2017-Oct-13 23:30N 44°24' E 008°53'0 0.0
2017-Oct-13 22:54N 44°24' E 008°53'0 0.0
2017-Oct-13 22:30N 44°24' E 008°53'0 0.0
2017-Oct-13 22:00N 44°24' E 008°53'0 0.0
2017-Oct-13 21:30N 44°24' E 008°53'0 0.0
2017-Oct-13 21:00N 44°24' E 008°53'0 0.0
2017-Oct-13 20:27N 44°24' E 008°53'0 0.0
2017-Oct-13 20:00N 44°24' E 008°53'1 2.3
2017-Oct-13 19:31N 44°24' E 008°55'3 6.7
2017-Oct-13 19:01N 44°22' E 008°58'3 6.2
2017-Oct-13 18:31N 44°19' E 009°00'510.2
2017-Oct-13 18:00N 44°15' E 009°04'510.2
2017-Oct-13 17:31N 44°11' E 009°09'510.2
2017-Oct-13 17:00N 44°07' E 009°13'510.5
2017-Oct-13 16:30N 44°03' E 009°17'510.9
2017-Oct-13 16:01N 43°58' E 009°22'611.7
2017-Oct-13 15:30N 43°54' E 009°27'612.0
2017-Oct-13 15:01N 43°49' E 009°32'711.9
2017-Oct-13 14:27N 43°44' E 009°38'511.9
2017-Oct-13 14:00N 43°39' E 009°42'611.9
2017-Oct-13 13:30N 43°35' E 009°47'511.3
2017-Oct-13 13:00N 43°31' E 009°53'611.4
2017-Oct-13 12:31N 43°30' E 010°00'611.6
2017-Oct-13 12:00N 43°30' E 010°09'611.1
2017-Oct-13 11:30N 43°32' E 010°15'3 6.2
2017-Oct-13 11:00N 43°34' E 010°18'0 0.1
2017-Oct-13 10:30N 43°34' E 010°18'0 0.0
2017-Oct-13 09:57N 43°34' E 010°18'0 0.0
2017-Oct-13 09:27N 43°34' E 010°18'0 0.0
2017-Oct-13 09:00N 43°34' E 010°18'0 0.0
2017-Oct-13 08:15N 43°34' E 010°18'0 0.0
2017-Oct-13 08:00N 43°34' E 010°18'0 0.0
2017-Oct-13 07:30N 43°34' E 010°18'0 0.0
2017-Oct-13 07:00N 43°34' E 010°18'0 0.0
2017-Oct-13 06:21N 43°34' E 010°18'0 0.0
2017-Oct-13 06:00N 43°34' E 010°18'0 0.0
2017-Oct-13 05:30N 43°34' E 010°18'0 0.0
2017-Oct-13 05:00N 43°34' E 010°18'2 3.2
2017-Oct-13 04:30N 43°33' E 010°17'2 4.5
2017-Oct-13 04:00N 43°31' E 010°17'0 0.1
2017-Oct-13 03:27N 43°31' E 010°17'0 0.0
2017-Oct-13 03:00N 43°31' E 010°17'0 0.1
2017-Oct-13 02:30N 43°31' E 010°17'0 0.1
2017-Oct-13 01:57N 43°31' E 010°17'0 0.1
2017-Oct-13 01:27N 43°31' E 010°17'0 0.1
2017-Oct-13 01:00N 43°31' E 010°17'0 0.0
2017-Oct-13 00:27N 43°31' E 010°17'0 0.0
2017-Oct-13 00:00N 43°31' E 010°17'0 0.0
2017-Oct-12 23:30N 43°31' E 010°17'0 0.0
2017-Oct-12 22:57N 43°31' E 010°17'0 0.1
2017-Oct-12 22:30N 43°31' E 010°17'0 0.0
2017-Oct-12 22:00N 43°31' E 010°17'0 0.0
2017-Oct-12 21:27N 43°31' E 010°17'0 0.0
2017-Oct-12 21:00N 43°31' E 010°17'0 0.0
2017-Oct-12 20:31N 43°31' E 010°17'0 0.0
2017-Oct-12 19:45N 43°31' E 010°17'0 0.0
2017-Oct-12 19:30N 43°31' E 010°17'0 0.0
2017-Oct-12 19:00N 43°31' E 010°17'0 0.0
2017-Oct-12 18:30N 43°31' E 010°17'0 0.0
2017-Oct-12 18:00N 43°31' E 010°17'0 0.0
2017-Oct-12 17:21N 43°31' E 010°17'0 0.0
2017-Oct-12 17:00N 43°31' E 010°17'0 0.0
2017-Oct-12 16:31N 43°31' E 010°17'0 0.0
2017-Oct-12 15:57N 43°31' E 010°17'0 0.1
2017-Oct-12 15:12N 43°31' E 010°17'0 0.0
2017-Oct-12 14:57N 43°31' E 010°17'0 0.1
2017-Oct-12 14:30N 43°31' E 010°17'0 0.0
2017-Oct-12 14:00N 43°31' E 010°17'0 0.0
2017-Oct-12 07:30N 43°31' E 010°17'0 0.0
2017-Oct-12 06:51N 43°31' E 010°17'0 0.0
2017-Oct-12 06:31N 43°31' E 010°17'0 0.0
2017-Oct-12 06:00N 43°31' E 010°17'0 0.0
2017-Oct-12 05:30N 43°31' E 010°17'0 0.0
2017-Oct-12 05:00N 43°31' E 010°17'0 0.0
2017-Oct-12 04:30N 43°31' E 010°17'0 0.0
2017-Oct-12 04:00N 43°31' E 010°17'0 0.0
2017-Oct-12 03:30N 43°31' E 010°17'0 0.0
2017-Oct-12 02:57N 43°31' E 010°17'0 0.0
2017-Oct-12 02:27N 43°31' E 010°17'0 0.1
2017-Oct-12 02:00N 43°31' E 010°17'0 0.3
2017-Oct-12 01:30N 43°31' E 010°17'0 0.0
2017-Oct-12 01:00N 43°31' E 010°17'0 0.0
2017-Oct-12 00:30N 43°31' E 010°17'0 0.0
2017-Oct-11 23:57N 43°31' E 010°17'0 0.0
2017-Oct-11 23:24N 43°31' E 010°17'0 0.3
2017-Oct-11 23:00N 43°31' E 010°17'0 0.0
2017-Oct-11 22:30N 43°31' E 010°17'0 0.0
2017-Oct-11 22:00N 43°31' E 010°17'0 0.0
2017-Oct-11 21:24N 43°31' E 010°17'0 0.0
2017-Oct-11 20:54N 43°31' E 010°17'0 0.0
2017-Oct-11 20:30N 43°31' E 010°17'0 0.0
2017-Oct-11 20:00N 43°31' E 010°17'0 0.1
2017-Oct-11 19:30N 43°31' E 010°17'0 0.2
2017-Oct-11 19:00N 43°31' E 010°17'0 0.0
2017-Oct-11 18:30N 43°31' E 010°17'0 0.0
2017-Oct-11 18:00N 43°31' E 010°17'0 0.0
2017-Oct-11 17:27N 43°31' E 010°17'0 0.0
2017-Oct-11 16:57N 43°31' E 010°17'99 5.5
2017-Oct-10 22:58N 42°34' E 008°27'  
Track history (hours):
 
Tides and Currents Weather Stations Pressure Air Temp Water Temp Dewpoint Dewpoint Depression Visibility Wind Speed Wind Dir Waves Ship Positions

Reecon Whale

Last reported at 2017-Oct-17 04:24 UTC. Time now 2017-Oct-18 16:52 UTC.
Position N 40°51' E 001°42'.

Length 145 m; draft 7.3 m.

Type: Ship. MMSI: 256579000.

Date/timePositionNaut miles runAvg speedWind from/ knotsBaromVisibWave heightAir tempDewpointWater temp
2017-Oct-17 04:24N 40°51' E 001°42'512.1
2017-Oct-17 04:00N 40°55' E 001°46'612.3
2017-Oct-17 03:30N 40°59' E 001°52'611.9
2017-Oct-17 03:00N 41°04' E 001°57'611.7
2017-Oct-17 02:30N 41°08' E 002°02'612.0
2017-Oct-17 02:00N 41°13' E 002°07'611.1
2017-Oct-17 01:30N 41°18' E 002°10'71 2.0
2017-Oct-15 13:54N 41°48' E 003°37'911.2
2017-Oct-15 13:07N 41°53' E 003°47'211.5
2017-Oct-15 12:55N 41°54' E 003°50'1711.4
2017-Oct-15 11:25N 42°02' E 004°10'711.5
2017-Oct-15 10:50N 42°05' E 004°18'611.6
2017-Oct-15 10:20N 42°08' E 004°25'811.5
2017-Oct-15 09:37N 42°12' E 004°34'311.4
2017-Oct-15 09:22N 42°13' E 004°38'411.2
2017-Oct-15 09:00N 42°15' E 004°43'611.0
2017-Oct-15 08:30N 42°17' E 004°50'1012.2
2017-Oct-15 07:43N 42°21' E 005°01'316.7
2017-Oct-15 07:30N 42°23' E 005°06'1117.2
2017-Oct-15 06:53N 42°28' E 005°18'616.1
2017-Oct-15 06:30N 42°30' E 005°26'612.0
2017-Oct-15 06:01N 42°33' E 005°33'711.7
2017-Oct-15 05:26N 42°36' E 005°41'611.7
2017-Oct-15 04:57N 42°39' E 005°48'711.9
2017-Oct-15 04:22N 42°42' E 005°56'712.0
2017-Oct-15 03:47N 42°45' E 006°05'2012.3
2017-Oct-15 02:07N 42°54' E 006°30'612.6
2017-Oct-15 01:41N 42°57' E 006°36'1612.4
2017-Oct-15 00:25N 43°06' E 006°54'512.2
2017-Oct-15 00:00N 43°09' E 006°60'612.0
2017-Oct-14 23:30N 43°12' E 007°06'611.7
2017-Oct-14 23:00N 43°16' E 007°13'611.6
2017-Oct-14 22:30N 43°19' E 007°19'611.7
2017-Oct-14 22:00N 43°23' E 007°25'611.9
2017-Oct-14 21:30N 43°26' E 007°32'1912.2
2017-Oct-14 19:57N 43°38' E 007°53'2112.0
2017-Oct-14 18:11N 43°50' E 008°17'211.9
2017-Oct-14 18:00N 43°52' E 008°19'611.9
2017-Oct-14 17:30N 43°56' E 008°24'612.0
2017-Oct-14 17:00N 44°00' E 008°30'611.9
2017-Oct-14 16:30N 44°05' E 008°36'611.7
2017-Oct-14 16:00N 44°09' E 008°42'611.7
2017-Oct-14 15:30N 44°13' E 008°48'611.7
2017-Oct-14 15:00N 44°17' E 008°54'510.5
2017-Oct-14 14:30N 44°21' E 008°57'4 7.4
2017-Oct-14 14:00N 44°24' E 008°54'1 1.2
2017-Oct-14 13:30N 44°24' E 008°53'0 0.0
2017-Oct-14 12:57N 44°24' E 008°53'0 0.0
2017-Oct-14 12:30N 44°24' E 008°53'0 0.0
2017-Oct-14 12:00N 44°24' E 008°53'0 0.0
2017-Oct-14 11:30N 44°24' E 008°53'0 0.0
2017-Oct-14 11:00N 44°24' E 008°53'0 0.0
2017-Oct-14 10:27N 44°24' E 008°53'0 0.0
2017-Oct-14 09:57N 44°24' E 008°53'0 0.0
2017-Oct-14 09:30N 44°24' E 008°53'0 0.0
2017-Oct-14 09:00N 44°24' E 008°53'0 0.0
2017-Oct-14 08:30N 44°24' E 008°53'0 0.0
2017-Oct-14 08:00N 44°24' E 008°53'0 0.0
2017-Oct-14 07:30N 44°24' E 008°53'0 0.0
2017-Oct-14 07:00N 44°24' E 008°53'0 0.0
2017-Oct-14 06:30N 44°24' E 008°53'0 0.0
2017-Oct-14 06:00N 44°24' E 008°53'0 0.0
2017-Oct-14 05:30N 44°24' E 008°53'0 0.0
2017-Oct-14 05:00N 44°24' E 008°53'0 0.0
2017-Oct-14 04:30N 44°24' E 008°53'0 0.0
2017-Oct-14 04:00N 44°24' E 008°53'0 0.0
2017-Oct-14 03:30N 44°24' E 008°53'0 0.0
2017-Oct-14 03:00N 44°24' E 008°53'0 0.0
2017-Oct-14 02:30N 44°24' E 008°53'0 0.0
2017-Oct-14 02:00N 44°24' E 008°53'0 0.0
2017-Oct-14 01:27N 44°24' E 008°53'0 0.0
2017-Oct-14 01:00N 44°24' E 008°53'0 0.0
2017-Oct-14 00:30N 44°24' E 008°53'0 0.0
2017-Oct-14 00:00N 44°24' E 008°53'0 0.0
2017-Oct-13 23:30N 44°24' E 008°53'0 0.0
2017-Oct-13 22:54N 44°24' E 008°53'0 0.0
2017-Oct-13 22:30N 44°24' E 008°53'0 0.0
2017-Oct-13 22:00N 44°24' E 008°53'0 0.0
2017-Oct-13 21:30N 44°24' E 008°53'0 0.0
2017-Oct-13 21:00N 44°24' E 008°53'0 0.0
2017-Oct-13 20:27N 44°24' E 008°53'0 0.0
2017-Oct-13 20:00N 44°24' E 008°53'1 2.3
2017-Oct-13 19:31N 44°24' E 008°55'3 6.7
2017-Oct-13 19:01N 44°22' E 008°58'3 6.2
2017-Oct-13 18:31N 44°19' E 009°00'510.2
2017-Oct-13 18:00N 44°15' E 009°04'510.2
2017-Oct-13 17:31N 44°11' E 009°09'510.2
2017-Oct-13 17:00N 44°07' E 009°13'510.5
2017-Oct-13 16:30N 44°03' E 009°17'510.9
2017-Oct-13 16:01N 43°58' E 009°22'611.7
2017-Oct-13 15:30N 43°54' E 009°27'612.0
2017-Oct-13 15:01N 43°49' E 009°32'711.9
2017-Oct-13 14:27N 43°44' E 009°38'511.9
2017-Oct-13 14:00N 43°39' E 009°42'611.9
2017-Oct-13 13:30N 43°35' E 009°47'511.3
2017-Oct-13 13:00N 43°31' E 009°53'611.4
2017-Oct-13 12:31N 43°30' E 010°00'611.6
2017-Oct-13 12:00N 43°30' E 010°09'611.1
2017-Oct-13 11:30N 43°32' E 010°15'3 6.2
2017-Oct-13 11:00N 43°34' E 010°18'0 0.1
2017-Oct-13 10:30N 43°34' E 010°18'0 0.0
2017-Oct-13 09:57N 43°34' E 010°18'0 0.0
2017-Oct-13 09:27N 43°34' E 010°18'0 0.0
2017-Oct-13 09:00N 43°34' E 010°18'0 0.0
2017-Oct-13 08:15N 43°34' E 010°18'0 0.0
2017-Oct-13 08:00N 43°34' E 010°18'0 0.0
2017-Oct-13 07:30N 43°34' E 010°18'0 0.0
2017-Oct-13 07:00N 43°34' E 010°18'0 0.0
2017-Oct-13 06:21N 43°34' E 010°18'0 0.0
2017-Oct-13 06:00N 43°34' E 010°18'0 0.0
2017-Oct-13 05:30N 43°34' E 010°18'0 0.0
2017-Oct-13 05:00N 43°34' E 010°18'2 3.2
2017-Oct-13 04:30N 43°33' E 010°17'2 4.5
2017-Oct-13 04:00N 43°31' E 010°17'0 0.1
2017-Oct-13 03:27N 43°31' E 010°17'0 0.0
2017-Oct-13 03:00N 43°31' E 010°17'0 0.1
2017-Oct-13 02:30N 43°31' E 010°17'0 0.1
2017-Oct-13 01:57N 43°31' E 010°17'0 0.1
2017-Oct-13 01:27N 43°31' E 010°17'0 0.1
2017-Oct-13 01:00N 43°31' E 010°17'0 0.0
2017-Oct-13 00:27N 43°31' E 010°17'0 0.0
2017-Oct-13 00:00N 43°31' E 010°17'0 0.0
2017-Oct-12 23:30N 43°31' E 010°17'0 0.0
2017-Oct-12 22:57N 43°31' E 010°17'0 0.1
2017-Oct-12 22:30N 43°31' E 010°17'0 0.0
2017-Oct-12 22:00N 43°31' E 010°17'0 0.0
2017-Oct-12 21:27N 43°31' E 010°17'0 0.0
2017-Oct-12 21:00N 43°31' E 010°17'0 0.0
2017-Oct-12 20:31N 43°31' E 010°17'0 0.0
2017-Oct-12 19:45N 43°31' E 010°17'0 0.0
2017-Oct-12 19:30N 43°31' E 010°17'0 0.0
2017-Oct-12 19:00N 43°31' E 010°17'0 0.0
2017-Oct-12 18:30N 43°31' E 010°17'0 0.0
2017-Oct-12 18:00N 43°31' E 010°17'0 0.0
2017-Oct-12 17:21N 43°31' E 010°17'0 0.0
2017-Oct-12 17:00N 43°31' E 010°17'0 0.0
2017-Oct-12 16:31N 43°31' E 010°17'0 0.0
2017-Oct-12 15:57N 43°31' E 010°17'0 0.1
2017-Oct-12 15:12N 43°31' E 010°17'0 0.0
2017-Oct-12 14:57N 43°31' E 010°17'0 0.1
2017-Oct-12 14:30N 43°31' E 010°17'0 0.0
2017-Oct-12 14:00N 43°31' E 010°17'0 0.0
2017-Oct-12 07:30N 43°31' E 010°17'0 0.0
2017-Oct-12 06:51N 43°31' E 010°17'0 0.0
2017-Oct-12 06:31N 43°31' E 010°17'0 0.0
2017-Oct-12 06:00N 43°31' E 010°17'0 0.0
2017-Oct-12 05:30N 43°31' E 010°17'0 0.0
2017-Oct-12 05:00N 43°31' E 010°17'0 0.0
2017-Oct-12 04:30N 43°31' E 010°17'0 0.0
2017-Oct-12 04:00N 43°31' E 010°17'0 0.0
2017-Oct-12 03:30N 43°31' E 010°17'0 0.0
2017-Oct-12 02:57N 43°31' E 010°17'0 0.0
2017-Oct-12 02:27N 43°31' E 010°17'0 0.1
2017-Oct-12 02:00N 43°31' E 010°17'0 0.3
2017-Oct-12 01:30N 43°31' E 010°17'0 0.0
2017-Oct-12 01:00N 43°31' E 010°17'0 0.0
2017-Oct-12 00:30N 43°31' E 010°17'0 0.0
2017-Oct-11 23:57N 43°31' E 010°17'0 0.0
2017-Oct-11 23:24N 43°31' E 010°17'0 0.3
2017-Oct-11 23:00N 43°31' E 010°17'0 0.0
2017-Oct-11 22:30N 43°31' E 010°17'0 0.0
2017-Oct-11 22:00N 43°31' E 010°17'0 0.0
2017-Oct-11 21:24N 43°31' E 010°17'0 0.0
2017-Oct-11 20:54N 43°31' E 010°17'0 0.0
2017-Oct-11 20:30N 43°31' E 010°17'0 0.0
2017-Oct-11 20:00N 43°31' E 010°17'0 0.1
2017-Oct-11 19:30N 43°31' E 010°17'0 0.2
2017-Oct-11 19:00N 43°31' E 010°17'0 0.0
2017-Oct-11 18:30N 43°31' E 010°17'0 0.0
2017-Oct-11 18:00N 43°31' E 010°17'0 0.0
2017-Oct-11 17:27N 43°31' E 010°17'0 0.0
2017-Oct-11 16:57N 43°31' E 010°17'99 5.5
2017-Oct-10 22:58N 42°34' E 008°27'  

Dump ship's entire track history